National Weather Service Raw Text Product

Displaying AFOS PIL: TAFMCW Received: 2018-08-11 05:20 UTC


357 
FTUS43 KDMX 110520
TAFMCW
TAF
KMCW 110520Z 1106/1206 VRB03KT P6SM FEW250
     FM111000 00000KT 4SM BR FEW250
     FM111400 19004KT P6SM FEW250=